createdAt,value
2017-05-05T00:00:16.623Z,0
2017-05-05T00:00:57.145Z,0
2017-05-05T00:01:37.668Z,0
2017-05-05T00:02:18.193Z,0
2017-05-05T00:02:58.706Z,0
2017-05-05T00:03:39.245Z,0
2017-05-05T00:04:19.767Z,0
2017-05-05T00:05:00.306Z,0
2017-05-05T00:05:40.814Z,0
2017-05-05T00:06:21.331Z,0
2017-05-05T00:07:01.855Z,0
2017-05-05T00:07:42.374Z,0
2017-05-05T00:08:22.884Z,0
2017-05-05T00:09:03.406Z,0
2017-05-05T00:09:43.937Z,0
2017-05-05T00:10:24.468Z,0
2017-05-05T00:11:05.000Z,0
2017-05-05T00:11:45.514Z,0
2017-05-05T00:12:26.038Z,0
2017-05-05T00:13:06.557Z,0
2017-05-05T00:13:47.089Z,0
2017-05-05T00:14:27.603Z,0
2017-05-05T00:15:08.121Z,0
2017-05-05T00:15:48.643Z,0
2017-05-05T00:16:29.165Z,0
2017-05-05T00:17:09.676Z,0
2017-05-05T00:17:50.215Z,0
2017-05-05T00:18:30.722Z,0
2017-05-05T00:19:11.262Z,0
2017-05-05T00:19:51.789Z,0
2017-05-05T00:20:32.305Z,0
2017-05-05T00:21:12.835Z,0
2017-05-05T00:21:53.356Z,0
2017-05-05T00:22:33.915Z,0
2017-05-05T00:23:14.418Z,0
2017-05-05T00:23:54.991Z,0
2017-05-05T00:24:35.465Z,0
2017-05-05T00:25:15.984Z,0
2017-05-05T00:25:56.503Z,0
2017-05-05T00:26:37.033Z,0
2017-05-05T00:27:17.556Z,0
2017-05-05T00:27:58.104Z,0
2017-05-05T00:28:38.626Z,0
2017-05-05T00:29:19.206Z,0
2017-05-05T00:29:59.753Z,0
2017-05-05T00:30:40.268Z,0
2017-05-05T00:31:20.790Z,0
2017-05-05T00:32:01.304Z,0
2017-05-05T00:32:41.818Z,0
2017-05-05T00:33:22.344Z,0
2017-05-05T00:34:02.865Z,0
2017-05-05T00:34:43.382Z,0
2017-05-05T00:35:23.898Z,0
2017-05-05T00:36:04.451Z,0
2017-05-05T00:36:44.968Z,0
2017-05-05T00:37:25.493Z,0
2017-05-05T00:38:06.012Z,0
2017-05-05T00:38:46.522Z,0
2017-05-05T00:39:27.033Z,0
2017-05-05T00:40:07.562Z,0
2017-05-05T00:40:48.079Z,0
2017-05-05T00:41:28.641Z,0
2017-05-05T00:42:09.119Z,0
2017-05-05T00:42:49.661Z,0
2017-05-05T00:43:30.199Z,0
2017-05-05T00:44:10.689Z,0
2017-05-05T00:44:51.218Z,0
2017-05-05T00:45:31.715Z,0
2017-05-05T00:46:12.242Z,0
2017-05-05T00:46:52.769Z,0
2017-05-05T00:47:33.322Z,0
2017-05-05T00:48:13.846Z,0
2017-05-05T00:48:54.319Z,0
2017-05-05T00:49:34.839Z,0
2017-05-05T00:50:15.355Z,0
2017-05-05T00:50:55.867Z,0
2017-05-05T00:51:36.402Z,0
2017-05-05T00:52:16.917Z,0
2017-05-05T00:52:57.448Z,0
2017-05-05T00:53:37.953Z,0
2017-05-05T00:54:18.517Z,0
2017-05-05T00:54:58.977Z,0
2017-05-05T00:55:39.529Z,0
2017-05-05T00:56:20.053Z,0
2017-05-05T00:57:00.565Z,0
2017-05-05T00:57:41.091Z,0
2017-05-05T00:58:21.626Z,0
2017-05-05T00:59:02.138Z,0
2017-05-05T00:59:42.656Z,0
2017-05-05T01:00:23.175Z,0
2017-05-05T01:01:03.695Z,0
2017-05-05T01:01:44.220Z,0
2017-05-05T01:02:24.746Z,0
2017-05-05T01:03:05.269Z,0
2017-05-05T01:03:45.795Z,0
2017-05-05T01:04:26.324Z,0
2017-05-05T01:05:06.837Z,0
2017-05-05T01:05:47.356Z,0
2017-05-05T01:06:27.878Z,0
2017-05-05T01:07:08.428Z,0
2017-05-05T01:07:48.951Z,0
2017-05-05T01:08:29.473Z,0
2017-05-05T01:09:09.990Z,0
2017-05-05T01:09:50.515Z,0
2017-05-05T01:10:31.030Z,0
2017-05-05T01:11:11.553Z,0
2017-05-05T01:11:52.076Z,0
2017-05-05T01:12:32.592Z,0
2017-05-05T01:13:13.113Z,0
2017-05-05T01:13:53.631Z,0
2017-05-05T01:14:34.163Z,0
2017-05-05T01:15:14.699Z,0
2017-05-05T01:15:55.235Z,0
2017-05-05T01:16:35.737Z,0
2017-05-05T01:17:16.256Z,0
2017-05-05T01:17:56.767Z,0
2017-05-05T01:18:37.303Z,0
2017-05-05T01:19:17.811Z,0
2017-05-05T01:19:58.341Z,0
2017-05-05T01:20:38.854Z,0
2017-05-05T01:21:19.378Z,0
2017-05-05T01:21:59.917Z,0
2017-05-05T01:22:40.437Z,0
2017-05-05T01:23:20.955Z,0
2017-05-05T01:24:01.486Z,0
2017-05-05T01:24:42.011Z,0
2017-05-05T01:25:22.538Z,0
2017-05-05T01:26:03.058Z,0
2017-05-05T01:26:43.573Z,0
2017-05-05T01:27:24.093Z,0
2017-05-05T01:28:04.616Z,0
2017-05-05T01:28:45.138Z,0
2017-05-05T01:29:25.662Z,0
2017-05-05T01:30:06.185Z,0
2017-05-05T01:30:46.698Z,0
2017-05-05T01:31:27.217Z,0
2017-05-05T01:32:07.736Z,0
2017-05-05T01:32:48.273Z,0
2017-05-05T01:33:28.791Z,0
2017-05-05T01:34:09.317Z,0
2017-05-05T01:34:49.831Z,0
2017-05-05T01:35:30.354Z,0
2017-05-05T01:36:10.870Z,0
2017-05-05T01:36:51.393Z,0
2017-05-05T01:37:31.910Z,0
2017-05-05T01:38:12.432Z,0
2017-05-05T01:38:52.948Z,0
2017-05-05T01:39:33.477Z,0
2017-05-05T01:40:14.012Z,0
2017-05-05T01:40:54.527Z,0
2017-05-05T01:41:35.083Z,0
2017-05-05T01:42:15.585Z,0
2017-05-05T01:42:56.106Z,0
2017-05-05T01:43:36.622Z,0
2017-05-05T01:44:17.143Z,0
2017-05-05T01:44:57.666Z,0
2017-05-05T01:45:38.202Z,0
2017-05-05T01:46:18.738Z,0
2017-05-05T01:46:59.274Z,0
2017-05-05T01:47:39.784Z,0
2017-05-05T01:48:20.295Z,0
2017-05-05T01:49:00.812Z,0
2017-05-05T01:49:41.339Z,0
2017-05-05T01:50:21.865Z,0
2017-05-05T01:51:02.425Z,0
2017-05-05T01:51:42.911Z,0
2017-05-05T01:52:23.434Z,0
2017-05-05T01:53:03.969Z,0
2017-05-05T01:53:44.491Z,0
2017-05-05T01:54:25.023Z,0
2017-05-05T01:55:05.550Z,0
2017-05-05T01:55:46.069Z,0
2017-05-05T01:56:26.589Z,0
2017-05-05T01:57:07.115Z,0
2017-05-05T01:57:47.635Z,0
2017-05-05T01:58:28.153Z,0
2017-05-05T01:59:08.684Z,0
2017-05-05T01:59:49.199Z,0
2017-05-05T02:00:29.722Z,0
2017-05-05T02:01:10.237Z,0
2017-05-05T02:01:50.774Z,0
2017-05-05T02:02:31.285Z,0
2017-05-05T02:03:11.778Z,0
2017-05-05T02:03:52.321Z,0
2017-05-05T02:04:32.858Z,0
2017-05-05T02:05:13.397Z,0
2017-05-05T02:05:53.920Z,0
2017-05-05T02:06:34.440Z,0
2017-05-05T02:07:14.954Z,0
2017-05-05T02:07:55.484Z,0
2017-05-05T02:08:35.976Z,0
2017-05-05T02:09:16.496Z,0
2017-05-05T02:09:57.012Z,0
2017-05-05T02:10:37.522Z,0
2017-05-05T02:11:18.045Z,0
2017-05-05T02:11:58.570Z,0
2017-05-05T02:12:39.089Z,0
2017-05-05T02:13:19.616Z,0
2017-05-05T02:14:00.142Z,0
2017-05-05T02:14:40.693Z,0
2017-05-05T02:15:21.202Z,0
2017-05-05T02:16:01.745Z,0
2017-05-05T02:16:42.261Z,0
2017-05-05T02:17:22.758Z,0
2017-05-05T02:18:03.274Z,0
2017-05-05T02:18:43.795Z,0
2017-05-05T02:19:24.329Z,0
2017-05-05T02:20:04.855Z,0
2017-05-05T02:20:45.378Z,0
2017-05-05T02:21:25.898Z,0
2017-05-05T02:22:06.421Z,0
2017-05-05T02:22:46.935Z,0
2017-05-05T02:23:27.454Z,0
2017-05-05T02:24:07.958Z,0
2017-05-05T02:24:48.475Z,0
2017-05-05T02:25:29.009Z,0
2017-05-05T02:26:09.535Z,0
2017-05-05T02:26:50.056Z,0
2017-05-05T02:27:30.607Z,0
2017-05-05T02:28:11.143Z,0
2017-05-05T02:28:51.629Z,0
2017-05-05T02:29:32.171Z,0
2017-05-05T02:30:12.670Z,0
2017-05-05T02:30:53.199Z,0
2017-05-05T02:31:33.731Z,0
2017-05-05T02:32:14.264Z,0
2017-05-05T02:32:54.788Z,0
2017-05-05T02:33:35.311Z,0
2017-05-05T02:34:15.847Z,0
2017-05-05T02:34:56.362Z,0
2017-05-05T02:35:36.893Z,0
2017-05-05T02:36:17.388Z,0
2017-05-05T02:36:57.912Z,0
2017-05-05T02:37:38.439Z,0
2017-05-05T02:38:18.975Z,0
2017-05-05T02:38:59.524Z,0
2017-05-05T02:39:40.035Z,0
2017-05-05T02:40:20.564Z,0
2017-05-05T02:41:01.092Z,0
2017-05-05T02:41:41.618Z,0
2017-05-05T02:42:22.138Z,0
2017-05-05T02:43:02.668Z,0
2017-05-05T02:43:43.197Z,0
2017-05-05T02:44:23.716Z,0
2017-05-05T02:45:04.237Z,0
2017-05-05T02:45:44.760Z,0
2017-05-05T02:46:25.277Z,0
2017-05-05T02:47:05.788Z,0
2017-05-05T02:47:46.312Z,0
2017-05-05T02:48:26.928Z,0
2017-05-05T02:49:07.435Z,0
2017-05-05T02:49:47.959Z,0
2017-05-05T02:50:28.559Z,0
2017-05-05T02:51:09.072Z,0
2017-05-05T02:51:49.597Z,0
2017-05-05T02:52:30.101Z,0
2017-05-05T02:53:10.630Z,0
2017-05-05T02:53:51.132Z,0
2017-05-05T02:54:31.661Z,0
2017-05-05T02:55:12.193Z,0
2017-05-05T02:55:52.716Z,0
2017-05-05T02:56:33.268Z,0
2017-05-05T02:57:13.716Z,0
2017-05-05T02:57:54.236Z,0
2017-05-05T02:58:34.754Z,0
2017-05-05T02:59:15.275Z,0
2017-05-05T02:59:55.789Z,0
2017-05-05T03:00:36.312Z,0
2017-05-05T03:01:16.840Z,0
2017-05-05T03:01:57.375Z,0
2017-05-05T03:02:37.896Z,0
2017-05-05T03:03:18.429Z,0
2017-05-05T03:03:58.959Z,0
2017-05-05T03:04:39.495Z,0
2017-05-05T03:05:20.025Z,0
2017-05-05T03:06:00.550Z,0
2017-05-05T03:06:41.077Z,0
2017-05-05T03:07:21.589Z,0
2017-05-05T03:08:02.123Z,0
2017-05-05T03:08:42.631Z,0
2017-05-05T03:09:23.169Z,0
2017-05-05T03:10:03.689Z,0
2017-05-05T03:10:44.208Z,0
2017-05-05T03:11:24.711Z,0
2017-05-05T03:12:05.217Z,0
2017-05-05T03:12:45.750Z,0
2017-05-05T03:13:26.202Z,0
2017-05-05T03:14:06.692Z,0
2017-05-05T03:14:47.198Z,0
2017-05-05T03:15:27.730Z,0
2017-05-05T03:16:08.246Z,0
2017-05-05T03:16:48.768Z,0
2017-05-05T03:17:29.293Z,0
2017-05-05T03:18:09.813Z,0
2017-05-05T03:18:50.327Z,0
2017-05-05T03:19:30.851Z,0
2017-05-05T03:20:11.379Z,0
2017-05-05T03:20:51.897Z,0
2017-05-05T03:21:32.417Z,0
2017-05-05T03:22:12.963Z,0
2017-05-05T03:22:53.492Z,0
2017-05-05T03:23:34.010Z,0
2017-05-05T03:24:14.531Z,0
2017-05-05T03:24:55.055Z,0
2017-05-05T03:25:35.600Z,0
2017-05-05T03:26:16.121Z,0
2017-05-05T03:26:56.669Z,0
2017-05-05T03:27:37.186Z,0
2017-05-05T03:30:10.846Z,0
2017-05-05T03:30:51.374Z,0
2017-05-05T03:31:31.890Z,0
2017-05-05T03:32:12.399Z,0
2017-05-05T03:32:52.924Z,0
2017-05-05T03:33:33.427Z,0
2017-05-05T03:34:13.961Z,0
2017-05-05T03:34:54.465Z,0
2017-05-05T03:35:34.972Z,0
2017-05-05T03:36:15.481Z,0
2017-05-05T03:36:56.031Z,0
2017-05-05T03:37:36.555Z,0
2017-05-05T03:38:17.081Z,0
2017-05-05T03:38:57.592Z,0
2017-05-05T03:39:38.126Z,0
2017-05-05T03:40:18.569Z,0
2017-05-05T03:40:59.079Z,0
2017-05-05T03:41:39.606Z,0
2017-05-05T03:42:20.075Z,0
2017-05-05T03:43:00.547Z,0
2017-05-05T03:43:41.071Z,0
2017-05-05T03:44:21.602Z,0
2017-05-05T03:45:02.118Z,0
2017-05-05T03:45:42.577Z,0
2017-05-05T03:46:23.100Z,0
2017-05-05T03:47:03.592Z,0
2017-05-05T03:47:44.119Z,0
2017-05-05T03:48:24.596Z,0
2017-05-05T03:49:05.062Z,0
2017-05-05T03:49:45.589Z,0
2017-05-05T03:50:26.089Z,0
2017-05-05T03:51:06.583Z,0
2017-05-05T03:51:47.111Z,0
2017-05-05T03:52:27.621Z,0
2017-05-05T03:53:08.120Z,0
2017-05-05T03:53:48.610Z,0
2017-05-05T03:54:29.101Z,0
2017-05-05T03:55:09.620Z,0
2017-05-05T03:55:50.097Z,0
2017-05-05T03:56:30.610Z,0
2017-05-05T03:57:11.154Z,0
2017-05-05T03:57:51.657Z,0
2017-05-05T03:58:32.194Z,0
2017-05-05T03:59:12.714Z,0
2017-05-05T03:59:53.239Z,0
2017-05-05T04:00:33.800Z,0
2017-05-05T04:01:14.289Z,0
2017-05-05T04:01:54.814Z,0
2017-05-05T04:02:35.345Z,0
2017-05-05T04:03:15.853Z,0
2017-05-05T04:03:56.366Z,0
2017-05-05T04:04:36.861Z,0
2017-05-05T04:05:17.316Z,0
2017-05-05T04:05:57.834Z,0
2017-05-05T04:06:38.365Z,0
2017-05-05T04:07:18.868Z,0
2017-05-05T04:07:59.367Z,0
2017-05-05T04:08:39.895Z,0
2017-05-05T04:09:20.432Z,0
2017-05-05T04:10:00.924Z,0
2017-05-05T04:10:41.402Z,0
2017-05-05T04:11:21.908Z,0
2017-05-05T04:12:02.443Z,0
2017-05-05T04:12:42.967Z,0
2017-05-05T04:13:23.492Z,0
2017-05-05T04:14:04.018Z,0
2017-05-05T04:14:44.531Z,0
2017-05-05T04:15:25.048Z,0
2017-05-05T04:16:05.565Z,0
2017-05-05T04:16:46.076Z,0
2017-05-05T04:17:26.592Z,0
2017-05-05T04:18:07.111Z,0
2017-05-05T04:18:47.862Z,0
2017-05-05T04:19:28.399Z,0
2017-05-05T04:20:08.917Z,0
2017-05-05T04:20:49.438Z,0
2017-05-05T04:21:29.965Z,0
2017-05-05T04:22:10.476Z,0
2017-05-05T04:22:51.001Z,0
2017-05-05T04:23:31.523Z,0
2017-05-05T04:24:12.033Z,0
2017-05-05T04:24:52.650Z,0
2017-05-05T04:25:33.174Z,0
2017-05-05T04:26:13.697Z,0
2017-05-05T04:26:54.213Z,0
2017-05-05T04:27:34.727Z,0
2017-05-05T04:28:15.251Z,0
2017-05-05T04:28:55.766Z,0
2017-05-05T04:29:36.285Z,0
2017-05-05T04:30:16.805Z,0
2017-05-05T04:30:57.352Z,0
2017-05-05T04:31:37.843Z,5
2017-05-05T04:32:18.370Z,5
2017-05-05T04:32:58.894Z,5
2017-05-05T04:33:39.409Z,5
2017-05-05T04:34:19.931Z,5
2017-05-05T04:35:00.454Z,5
2017-05-05T04:35:40.972Z,5
2017-05-05T04:36:21.491Z,5
2017-05-05T04:37:02.011Z,5
2017-05-05T04:37:42.552Z,5
2017-05-05T04:38:23.075Z,5
2017-05-05T04:39:03.599Z,5
2017-05-05T04:39:44.114Z,5
2017-05-05T04:40:24.636Z,5
2017-05-05T04:41:05.160Z,5
2017-05-05T04:41:45.684Z,5
2017-05-05T04:42:26.217Z,5
2017-05-05T04:43:06.730Z,5
2017-05-05T04:43:47.252Z,5
2017-05-05T04:44:27.790Z,5
2017-05-05T04:45:08.306Z,5
2017-05-05T04:45:48.817Z,5
2017-05-05T04:46:29.350Z,5
2017-05-05T04:47:09.878Z,5
2017-05-05T04:47:50.403Z,5
2017-05-05T04:48:30.931Z,5
2017-05-05T04:49:11.444Z,10
2017-05-05T04:49:51.969Z,10
2017-05-05T04:50:32.503Z,10
2017-05-05T04:51:13.020Z,10
2017-05-05T04:51:53.543Z,10
2017-05-05T04:52:34.059Z,10
2017-05-05T04:53:14.583Z,15
2017-05-05T04:53:55.124Z,15
2017-05-05T04:54:35.657Z,15
2017-05-05T04:55:16.177Z,15
2017-05-05T04:55:56.697Z,15
2017-05-05T04:56:37.220Z,20
2017-05-05T04:57:17.745Z,20
2017-05-05T04:57:58.256Z,20
2017-05-05T04:58:38.774Z,20
2017-05-05T04:59:19.296Z,20
2017-05-05T04:59:59.815Z,20
2017-05-05T05:00:40.331Z,20
2017-05-05T05:01:20.871Z,25
2017-05-05T05:02:01.391Z,25
2017-05-05T05:02:41.932Z,30
2017-05-05T05:03:22.453Z,30
2017-05-05T05:04:03.066Z,30
2017-05-05T05:04:43.576Z,35
2017-05-05T05:05:24.096Z,35
2017-05-05T05:06:04.622Z,35
2017-05-05T05:06:45.158Z,40
2017-05-05T05:07:25.658Z,40
2017-05-05T05:08:06.178Z,40
2017-05-05T05:08:46.712Z,40
2017-05-05T05:09:27.229Z,40
2017-05-05T05:10:07.750Z,40
2017-05-05T05:10:48.267Z,35
2017-05-05T05:11:28.797Z,35
2017-05-05T05:12:09.319Z,35
2017-05-05T05:12:49.831Z,35
2017-05-05T05:13:30.375Z,35
2017-05-05T05:14:10.873Z,35
2017-05-05T05:14:51.398Z,35
2017-05-05T05:15:31.921Z,35
2017-05-05T05:16:12.457Z,40
2017-05-05T05:16:52.969Z,40
2017-05-05T05:17:33.520Z,40
2017-05-05T05:18:14.044Z,45
2017-05-05T05:18:54.554Z,45
2017-05-05T05:19:35.078Z,45
2017-05-05T05:20:15.614Z,50
2017-05-05T05:20:56.131Z,50
2017-05-05T05:21:36.659Z,50
2017-05-05T05:22:17.170Z,50
2017-05-05T05:22:57.713Z,50
2017-05-05T05:23:38.220Z,50
2017-05-05T05:24:18.764Z,50
2017-05-05T05:24:59.284Z,50
2017-05-05T05:25:39.805Z,45
2017-05-05T05:26:20.342Z,45
2017-05-05T05:27:00.856Z,50
2017-05-05T05:27:41.388Z,50
2017-05-05T05:28:21.904Z,50
2017-05-05T05:29:02.425Z,55
2017-05-05T05:29:42.943Z,55
2017-05-05T05:30:23.469Z,60
2017-05-05T05:31:03.984Z,60
2017-05-05T05:31:44.509Z,60
2017-05-05T05:32:25.030Z,65
2017-05-05T05:33:05.559Z,65
2017-05-05T05:33:46.090Z,70
2017-05-05T05:34:26.596Z,75
2017-05-05T05:35:07.126Z,75
2017-05-05T05:35:47.664Z,80
2017-05-05T05:36:28.177Z,85
2017-05-05T05:37:08.695Z,90
2017-05-05T05:37:49.222Z,90
2017-05-05T05:38:30.034Z,85
2017-05-05T05:39:10.486Z,85
2017-05-05T05:39:50.990Z,80
2017-05-05T05:40:31.504Z,85
2017-05-05T05:41:12.011Z,85
2017-05-05T05:41:52.529Z,85
2017-05-05T05:42:33.044Z,80
2017-05-05T05:43:13.576Z,75
2017-05-05T05:43:54.104Z,70
2017-05-05T05:44:34.638Z,70
2017-05-05T05:45:15.176Z,65
2017-05-05T05:45:55.701Z,65
2017-05-05T05:46:36.245Z,70
2017-05-05T05:47:17.139Z,75
2017-05-05T05:47:57.686Z,80
2017-05-05T05:48:38.214Z,80
2017-05-05T05:49:18.762Z,80
2017-05-05T05:49:59.809Z,80
2017-05-05T05:50:40.345Z,75
2017-05-05T05:51:20.849Z,70
2017-05-05T05:52:01.382Z,65
2017-05-05T05:52:41.898Z,60
2017-05-05T05:53:23.102Z,60
2017-05-05T05:54:03.633Z,60
2017-05-05T05:54:44.153Z,55
2017-05-05T05:55:24.698Z,50
2017-05-05T05:56:05.252Z,50
2017-05-05T05:56:45.766Z,50
2017-05-05T05:57:26.272Z,50
2017-05-05T05:58:06.801Z,50
2017-05-05T05:58:47.340Z,50
2017-05-05T05:59:28.105Z,55
2017-05-05T06:00:08.699Z,55
2017-05-05T06:00:49.214Z,55
2017-05-05T06:01:29.726Z,55
2017-05-05T06:02:10.261Z,55
2017-05-05T06:02:50.782Z,55
2017-05-05T06:03:31.306Z,55
2017-05-05T06:04:11.832Z,55
2017-05-05T06:04:52.438Z,50
2017-05-05T06:05:32.939Z,50
2017-05-05T06:08:11.636Z,50
2017-05-05T06:08:52.162Z,50
2017-05-05T06:09:32.681Z,50
2017-05-05T06:10:13.201Z,50
2017-05-05T06:10:53.715Z,50
2017-05-05T06:11:34.243Z,50
2017-05-05T06:12:14.750Z,50
2017-05-05T06:12:55.267Z,50
2017-05-05T06:13:35.781Z,50
2017-05-05T06:14:16.308Z,50
2017-05-05T06:14:56.848Z,50
2017-05-05T06:15:37.373Z,50
2017-05-05T06:16:17.885Z,50
2017-05-05T06:16:58.416Z,50
2017-05-05T06:17:38.939Z,50
2017-05-05T06:18:19.455Z,45
2017-05-05T06:18:59.978Z,45
2017-05-05T06:19:40.509Z,45
2017-05-05T06:20:21.038Z,45
2017-05-05T06:21:01.569Z,50
2017-05-05T06:21:42.085Z,50
2017-05-05T06:22:22.605Z,50
2017-05-05T06:23:03.131Z,50
2017-05-05T06:23:43.642Z,45
2017-05-05T06:24:24.172Z,50
2017-05-05T06:25:04.689Z,55
2017-05-05T06:25:45.206Z,60
2017-05-05T06:26:25.718Z,75
2017-05-05T06:27:06.238Z,85
2017-05-05T06:27:46.748Z,95
2017-05-05T06:28:27.292Z,100
2017-05-05T06:29:07.807Z,110
2017-05-05T06:29:48.322Z,110
2017-05-05T06:30:28.838Z,110
2017-05-05T06:31:09.358Z,105
2017-05-05T06:31:49.881Z,100
2017-05-05T06:32:30.403Z,95
2017-05-05T06:33:10.942Z,90
2017-05-05T06:33:51.432Z,85
2017-05-05T06:34:31.947Z,80
2017-05-05T06:35:12.482Z,80
2017-05-05T06:35:53.009Z,75
2017-05-05T06:36:33.531Z,75
2017-05-05T06:37:14.049Z,75
2017-05-05T06:37:54.558Z,65
2017-05-05T06:38:35.097Z,60
2017-05-05T06:39:15.631Z,55
2017-05-05T06:39:56.141Z,55
2017-05-05T06:40:36.661Z,50
2017-05-05T06:41:17.185Z,50
2017-05-05T06:41:57.696Z,50
2017-05-05T06:42:38.220Z,50
2017-05-05T06:43:18.759Z,50
2017-05-05T06:43:59.276Z,55
2017-05-05T06:44:39.798Z,55
2017-05-05T06:45:20.365Z,55
2017-05-05T06:46:00.889Z,55
2017-05-05T06:46:41.410Z,60
2017-05-05T06:47:21.935Z,60
2017-05-05T06:48:02.470Z,60
2017-05-05T06:48:42.962Z,55
2017-05-05T06:49:23.495Z,55
2017-05-05T06:50:04.017Z,55
2017-05-05T06:50:44.530Z,55
2017-05-05T06:51:25.048Z,50
2017-05-05T06:52:05.593Z,45
2017-05-05T06:52:46.126Z,40
2017-05-05T06:53:26.650Z,35
2017-05-05T06:54:07.168Z,35
2017-05-05T06:54:47.693Z,30
2017-05-05T06:55:28.230Z,30
2017-05-05T06:56:08.746Z,30
2017-05-05T06:56:49.274Z,35
2017-05-05T06:57:29.792Z,35
2017-05-05T06:58:10.309Z,40
2017-05-05T06:58:50.847Z,45
2017-05-05T06:59:31.345Z,50
2017-05-05T07:00:11.877Z,55
2017-05-05T07:00:52.393Z,60
2017-05-05T07:01:32.978Z,65
2017-05-05T07:02:13.508Z,75
2017-05-05T07:02:54.023Z,85
2017-05-05T07:03:34.545Z,105
2017-05-05T07:04:15.052Z,105
2017-05-05T07:04:55.576Z,115
2017-05-05T07:05:36.091Z,125
2017-05-05T07:06:16.615Z,135
2017-05-05T07:06:57.149Z,155
2017-05-05T07:07:37.679Z,175
2017-05-05T07:08:18.189Z,200
2017-05-05T07:08:58.728Z,215
2017-05-05T07:09:39.250Z,230
2017-05-05T07:10:19.771Z,235
2017-05-05T07:11:00.295Z,240
2017-05-05T07:11:40.800Z,250
2017-05-05T07:12:21.324Z,250
2017-05-05T07:13:01.845Z,245
2017-05-05T07:13:42.348Z,240
2017-05-05T07:14:22.859Z,235
2017-05-05T07:15:03.455Z,240
2017-05-05T07:15:43.949Z,245
2017-05-05T07:16:24.472Z,250
2017-05-05T07:17:04.995Z,265
2017-05-05T07:17:45.525Z,275
2017-05-05T07:18:26.049Z,285
2017-05-05T07:19:06.594Z,270
2017-05-05T07:19:47.102Z,265
2017-05-05T07:20:27.638Z,240
2017-05-05T07:21:08.156Z,230
2017-05-05T07:21:48.700Z,225
2017-05-05T07:22:29.257Z,225
2017-05-05T07:23:09.790Z,230
2017-05-05T07:23:50.337Z,230
2017-05-05T07:24:30.847Z,220
2017-05-05T07:25:11.368Z,205
2017-05-05T07:25:51.904Z,190
2017-05-05T07:26:32.427Z,190
2017-05-05T07:27:12.944Z,190
2017-05-05T07:27:53.454Z,190
2017-05-05T07:28:33.975Z,200
2017-05-05T07:29:14.493Z,200
2017-05-05T07:29:55.026Z,205
2017-05-05T07:30:35.545Z,215
2017-05-05T07:31:16.077Z,215
2017-05-05T07:31:56.627Z,215
2017-05-05T07:32:37.161Z,210
2017-05-05T07:33:17.688Z,200
2017-05-05T07:33:58.206Z,195
2017-05-05T07:34:38.728Z,190
2017-05-05T07:35:19.247Z,190
2017-05-05T07:35:59.777Z,195
2017-05-05T07:36:40.304Z,195
2017-05-05T07:37:20.825Z,200
2017-05-05T07:38:01.351Z,205
2017-05-05T07:38:42.316Z,205
2017-05-05T07:39:22.431Z,200
2017-05-05T07:40:02.921Z,195
2017-05-05T07:40:43.456Z,185
2017-05-05T07:41:23.983Z,185
2017-05-05T07:42:04.878Z,195
2017-05-05T07:42:45.396Z,205
2017-05-05T07:43:25.933Z,225
2017-05-05T07:44:06.484Z,235
2017-05-05T07:44:47.059Z,245
2017-05-05T07:45:27.576Z,250
2017-05-05T07:46:08.091Z,245
2017-05-05T07:46:48.609Z,245
2017-05-05T07:47:29.130Z,245
2017-05-05T07:48:09.645Z,245
2017-05-05T07:48:50.169Z,245
2017-05-05T07:49:30.685Z,245
2017-05-05T07:50:11.203Z,250
2017-05-05T07:50:51.719Z,255
2017-05-05T07:51:32.243Z,255
2017-05-05T07:52:12.801Z,245
2017-05-05T07:52:53.303Z,235
2017-05-05T07:53:33.824Z,235
2017-05-05T07:54:14.357Z,230
2017-05-05T07:54:54.889Z,215
2017-05-05T07:55:35.417Z,225
2017-05-05T07:56:15.940Z,225
2017-05-05T07:56:56.461Z,225
2017-05-05T07:57:37.012Z,220
2017-05-05T07:58:17.543Z,215
2017-05-05T07:58:58.073Z,200
2017-05-05T07:59:38.586Z,210
2017-05-05T08:00:19.145Z,210
2017-05-05T08:00:59.664Z,200
2017-05-05T08:01:40.185Z,200
2017-05-05T08:02:20.695Z,215
2017-05-05T08:03:01.196Z,220
2017-05-05T08:03:41.731Z,225
2017-05-05T08:04:22.256Z,220
2017-05-05T08:05:02.777Z,215
2017-05-05T08:05:43.302Z,205
2017-05-05T08:06:23.843Z,195
2017-05-05T08:07:04.425Z,195
2017-05-05T08:07:44.968Z,190
2017-05-05T08:08:25.461Z,185
2017-05-05T08:09:05.989Z,180
2017-05-05T08:09:46.498Z,175
2017-05-05T08:10:27.018Z,175
2017-05-05T08:11:07.538Z,175
2017-05-05T08:11:48.082Z,175
2017-05-05T08:12:28.603Z,175
2017-05-05T08:13:09.124Z,175
2017-05-05T08:13:49.640Z,175
2017-05-05T08:14:30.155Z,170
2017-05-05T08:15:10.682Z,170
2017-05-05T08:15:51.204Z,170
2017-05-05T08:16:31.722Z,165
2017-05-05T08:17:12.243Z,165
2017-05-05T08:17:52.775Z,170
2017-05-05T08:18:33.297Z,175
2017-05-05T08:19:13.803Z,175
2017-05-05T08:19:54.329Z,170
2017-05-05T08:20:34.844Z,170
2017-05-05T08:21:15.366Z,170
2017-05-05T08:21:55.888Z,170
2017-05-05T08:22:36.412Z,170
2017-05-05T08:23:16.944Z,175
2017-05-05T08:23:57.471Z,175
2017-05-05T08:24:37.995Z,175
2017-05-05T08:25:18.520Z,180
2017-05-05T08:25:59.046Z,185
2017-05-05T08:26:39.549Z,185
2017-05-05T08:27:20.103Z,180
2017-05-05T08:28:00.634Z,170
2017-05-05T08:28:41.158Z,170
2017-05-05T08:29:21.663Z,170
2017-05-05T08:30:02.216Z,165
2017-05-05T08:30:42.767Z,175
2017-05-05T08:31:23.289Z,180
2017-05-05T08:32:03.808Z,180
2017-05-05T08:32:44.333Z,185
2017-05-05T08:33:24.847Z,185
2017-05-05T08:34:05.359Z,190
2017-05-05T08:34:45.878Z,195
2017-05-05T08:35:26.395Z,190
2017-05-05T08:36:06.914Z,195
2017-05-05T08:36:47.420Z,185
2017-05-05T08:37:27.945Z,190
2017-05-05T08:38:08.457Z,180
2017-05-05T08:38:48.985Z,175
2017-05-05T08:39:29.501Z,180
2017-05-05T08:40:10.016Z,180
2017-05-05T08:40:50.593Z,180
2017-05-05T08:41:31.112Z,190
2017-05-05T08:42:11.651Z,205
2017-05-05T08:42:52.146Z,205
2017-05-05T08:43:32.753Z,205
2017-05-05T08:44:13.197Z,200
2017-05-05T08:44:53.719Z,200
2017-05-05T08:45:34.243Z,195
2017-05-05T08:46:14.761Z,190
2017-05-05T08:46:55.707Z,180
2017-05-05T08:47:36.218Z,180
2017-05-05T08:48:16.741Z,185
2017-05-05T08:48:57.267Z,200
2017-05-05T08:49:37.780Z,210
2017-05-05T08:50:18.305Z,220
2017-05-05T08:50:58.827Z,220
2017-05-05T08:51:39.354Z,225
2017-05-05T08:52:19.893Z,230
2017-05-05T08:53:00.434Z,235
2017-05-05T08:53:40.960Z,235
2017-05-05T08:54:21.504Z,240
2017-05-05T08:55:02.008Z,240
2017-05-05T08:55:42.529Z,225
2017-05-05T08:56:23.062Z,225
2017-05-05T08:57:03.575Z,230
2017-05-05T08:57:44.095Z,255
2017-05-05T08:58:24.616Z,255
2017-05-05T08:59:05.174Z,255
2017-05-05T08:59:45.706Z,255
2017-05-05T09:00:26.224Z,260
2017-05-05T09:01:06.761Z,260
2017-05-05T09:01:47.277Z,265
2017-05-05T09:02:27.800Z,260
2017-05-05T09:03:08.324Z,260
2017-05-05T09:03:48.847Z,260
2017-05-05T09:04:29.382Z,260
2017-05-05T09:05:09.903Z,265
2017-05-05T09:05:50.429Z,265
2017-05-05T09:06:30.952Z,260
2017-05-05T09:07:11.476Z,250
2017-05-05T09:07:52.021Z,250
2017-05-05T09:08:32.549Z,245
2017-05-05T09:09:13.075Z,245
2017-05-05T09:09:53.594Z,250
2017-05-05T09:10:34.112Z,260
2017-05-05T09:11:14.642Z,270
2017-05-05T09:11:55.168Z,275
2017-05-05T09:12:35.686Z,275
2017-05-05T09:13:16.220Z,275
2017-05-05T09:13:56.735Z,275
2017-05-05T09:14:37.260Z,280
2017-05-05T09:15:17.785Z,275
2017-05-05T09:15:58.320Z,280
2017-05-05T09:16:38.853Z,275
2017-05-05T09:17:19.376Z,270
2017-05-05T09:17:59.896Z,260
2017-05-05T09:18:40.441Z,250
2017-05-05T09:19:20.992Z,245
2017-05-05T09:20:01.500Z,245
2017-05-05T09:20:42.028Z,250
2017-05-05T09:21:22.549Z,250
2017-05-05T09:22:03.073Z,255
2017-05-05T09:22:43.612Z,255
2017-05-05T09:23:24.129Z,255
2017-05-05T09:24:04.678Z,250
2017-05-05T09:24:45.251Z,245
2017-05-05T09:25:25.782Z,240
2017-05-05T09:26:06.300Z,235
2017-05-05T09:26:46.824Z,225
2017-05-05T09:27:27.356Z,205
2017-05-05T09:28:07.867Z,205
2017-05-05T09:30:46.587Z,210
2017-05-05T09:31:27.121Z,205
2017-05-05T09:32:07.654Z,200
2017-05-05T09:32:48.430Z,200
2017-05-05T09:33:28.767Z,195
2017-05-05T09:34:09.298Z,195
2017-05-05T09:34:49.812Z,190
2017-05-05T09:35:30.353Z,180
2017-05-05T09:36:10.881Z,175
2017-05-05T09:36:51.520Z,165
2017-05-05T09:37:31.933Z,150
2017-05-05T09:38:12.478Z,145
2017-05-05T09:38:53.035Z,140
2017-05-05T09:39:33.723Z,135
2017-05-05T09:40:14.264Z,130
2017-05-05T09:40:54.782Z,130
2017-05-05T09:41:35.295Z,135
2017-05-05T09:42:15.811Z,140
2017-05-05T09:42:56.331Z,140
2017-05-05T09:43:36.849Z,150
2017-05-05T09:44:17.388Z,150
2017-05-05T09:44:57.909Z,155
2017-05-05T09:45:38.428Z,160
2017-05-05T09:46:18.948Z,160
2017-05-05T09:46:59.462Z,160
2017-05-05T09:47:39.973Z,155